Flight Track Log - Related Links

Times and Time Zones

All times are in EDT time to prevent confusion due to time zone crossing. See the N770NC flight status page for this flight to view local times or setup timezone preferences in your user account.

Time Position Orientation Groundspeed Altitude Reporting Facility
EDT Latitude Longitude Course Direction KTS MPH feet Rate Location/Type
Sun 02:25:46 PM 33.8525 -81.0719 259° West 231 266 2,900  Level Jacksonville Center
Sun 02:26:46 PM 33.8181 -81.1503 242° Southwest 220 253 5,400 2,350 Climbing Jacksonville Center
Sun 02:27:46 PM 33.8214 -81.2428 273° West 235 270 7,600 2,350 Climbing Jacksonville Center
Sun 02:28:46 PM 33.8269 -81.3400 274° West 259 298 10,100 1,850 Climbing Jacksonville Center
Sun 02:29:46 PM 33.8114 -81.4453 260° West 287 330 11,300 1,714 Climbing Jacksonville Center
Sun 02:30:00 PM 33.7853 -81.5051 259° West  Level FlightAware Approximate
Sun 02:31:00 PM 33.7694 -81.6004 259° West  Level FlightAware Approximate
Sun 02:31:20 PM 33.7831 -81.6194 259° West 324 373 14,500  Level Atlanta Center
Sun 02:32:20 PM 33.7558 -81.7303 254° West 336 387 16,300 1,750 Climbing Atlanta Center
Sun 02:33:20 PM 33.7372 -81.8481 259° West 349 402 18,000 1,600 Climbing Atlanta Center
Sun 02:34:20 PM 33.7308 -81.9706 266° West 361 415 19,500 1,400 Climbing Atlanta Center
Sun 02:35:20 PM 33.6953 -82.0864 250° West 366 421 20,800 1,100 Climbing Atlanta Center
Sun 02:36:20 PM 33.6425 -82.1947 240° Southwest 378 435 21,700 600 Climbing Atlanta Center
Sun 02:37:20 PM 33.5814 -82.2933 233° Southwest 394 453 22,000 150 Climbing Atlanta Center
Sun 02:38:20 PM 33.5097 -82.3969 230° Southwest 411 473 22,000  Level Atlanta Center
Sun 02:39:20 PM 33.4486 -82.5053 236° Southwest 403 464 22,000  Level Atlanta Center
Sun 02:40:20 PM 33.4083 -82.6303 249° West 397 457 22,000  Level Atlanta Center
Sun 02:41:20 PM 33.3806 -82.7725 257° West 413 475 22,000  Level Atlanta Center
Sun 02:42:20 PM 33.3569 -82.9047 258° West 404 465 22,000 -650 Level Atlanta Center
Sun 02:43:20 PM 33.3350 -83.0342 259° West 404 465 20,700 -1,350 Descending Atlanta Center
Sun 02:44:20 PM 33.2964 -83.1564 249° West 399 459 19,300 -1,400 Descending Atlanta Center
Sun 02:45:20 PM 33.2492 -83.2714 244° Southwest 399 459 17,900 -1,240 Descending Atlanta Center
Sun 02:46:21 PM 33.1975 -83.3811 241° Southwest 392 451 16,800 -1,500 Descending Atlanta Center
Sun 02:47:20 PM 33.1564 -83.4881 245° Southwest 371 427 14,900 -2,218 Descending Atlanta Center
Sun 02:48:20 PM 33.1589 -83.6094 271° West 350 403 12,400 -2,023 Descending Atlanta Center
Sun 02:48:46 PM 33.1833 -83.6500 306° West 361 415 12,000 -261 Descending Atlanta TRACON
Sun 02:49:52 PM 33.2333 -83.7667 297° West 339 390 12,000 -476 Level Atlanta TRACON
Sun 02:50:52 PM 33.2833 -83.8500 306° West 315 362 11,000 -1,023 Descending Atlanta TRACON
Sun 02:51:20 PM 33.2933 -83.8872 288° West 325 374 10,500 -1,432 Descending Atlanta Center
Sun 02:52:20 PM 33.3372 -83.9692 303° West 305 351 8,900 -1,400 Descending Atlanta Center
Sun 02:53:20 PM 33.3767 -84.0489 301° West 287 330 7,700 -1,300 Descending Atlanta Center
Sun 02:54:20 PM 33.4122 -84.1158 302° West 260 299 6,300 -1,250 Descending Atlanta Center
Sun 02:55:20 PM 33.4561 -84.1783 310° West 248 285 5,200 -650 Descending Atlanta Center
Sun 02:56:20 PM 33.5292 -84.1983 347° North 231 266 5,000 -400 Descending Atlanta Center
Sun 02:57:20 PM 33.5564 -84.1336 63° Northeast 165 190 4,400 -824 Descending Atlanta Center
Sun 02:58:53 PM 33.6167 -84.1167 13° North 235 270 2,900 -528 Descending Atlanta TRACON
Sun 02:59:59 PM 33.6167 -84.2000 270° West 216 249 3,000 48 Climbing Atlanta TRACON
Sun 03:00:59 PM 33.6167 -84.2667 270° West 187 215 3,000 -300 Level Atlanta TRACON
Sun 03:01:59 PM 33.6167 -84.3167 270° West 199 229 2,400 -700 Descending Atlanta TRACON
Sun 03:02:59 PM 33.6167 -84.3833 270° West 153 176 1,600 -800 Descending Atlanta TRACON
Sun 03:04:00 PM 33.6333 -84.4167 40° Northeast  Level FlightAware Approximate
Sun 03:11:00 PM 33.6367 -84.4279 40° Northeast  Level Estimated
Sun 03:12:00 PM 33.6367 -84.4279 40° Northeast  Level Estimated

Login

Don't have an account? Register now (free) for customized features, flight alerts, and more!